Time;durP1;ratioP1;P1;durP2;ratioP2;P2;SDS_P1;SDS_P2;PMS_P1;PMS_P2;Temp;Humidity;BMP_temperature;BMP_pressure;BME280_temperature;BME280_humidity;BME280_pressure;Samples;Min_cycle;Max_cycle;Signal;HPM_P1;HPM_P2
2022/09/01 00:02:19;;;;;;;1.30;0.32;;;13.30;99.90;;;;;;5105223;28;20375;-86
2022/09/01 00:04:45;;;;;;;2.00;0.32;;;13.30;99.90;;;;;;5105706;28;20032;-86
2022/09/01 00:07:12;;;;;;;2.35;0.75;;;13.30;99.90;;;;;;5106217;28;20031;-86
2022/09/01 00:09:38;;;;;;;3.47;0.43;;;13.30;99.90;;;;;;5110423;27;20091;-86
2022/09/01 00:12:07;;;;;;;1.77;0.30;;;13.30;99.90;;;;;;5105797;27;20043;-86
2022/09/01 00:14:35;;;;;;;1.35;0.57;;;13.30;99.90;;;;;;5079723;28;20027;-85
2022/09/01 00:17:04;;;;;;;1.77;0.52;;;13.30;99.90;;;;;;5116052;27;20031;-85
2022/09/01 00:19:32;;;;;;;2.53;0.70;;;13.30;99.90;;;;;;5099959;27;20045;-85
2022/09/01 00:21:58;;;;;;;1.20;0.47;;;13.20;99.90;;;;;;5116654;27;20039;-85
2022/09/01 00:24:25;;;;;;;1.50;0.60;;;13.20;99.90;;;;;;5091630;27;20405;-84
2022/09/01 00:26:52;;;;;;;2.75;0.30;;;13.20;99.90;;;;;;5116939;27;20035;-85
2022/09/01 00:29:19;;;;;;;1.58;0.50;;;13.10;99.90;;;;;;5117007;27;20043;-84
2022/09/01 00:31:45;;;;;;;2.28;0.63;;;13.10;99.90;;;;;;5097454;27;20039;-84
2022/09/01 00:34:10;;;;;;;1.27;0.47;;;13.00;99.90;;;;;;5080080;28;20554;-84
2022/09/01 00:36:36;;;;;;;1.13;0.50;;;13.00;99.90;;;;;;5097020;28;20253;-84
2022/09/01 00:39:04;;;;;;;2.67;0.40;;;13.00;99.90;;;;;;5101137;27;20035;-84
2022/09/01 00:41:31;;;;;;;1.58;0.63;;;12.90;99.90;;;;;;5099520;27;20058;-84
2022/09/01 00:44:00;;;;;;;1.88;0.40;;;12.90;99.90;;;;;;5115017;27;20054;-83
2022/09/01 00:46:33;;;;;;;2.22;0.40;;;12.80;99.90;;;;;;5096484;28;20065;-83
2022/09/01 00:49:10;;;;;;;1.30;0.43;;;12.80;99.90;;;;;;5079010;28;20046;-83
2022/09/01 00:51:38;;;;;;;1.48;0.73;;;12.90;99.90;;;;;;5083579;27;20067;-83
2022/09/01 00:54:07;;;;;;;0.88;0.30;;;12.80;99.90;;;;;;5105494;28;20414;-83
2022/09/01 00:56:36;;;;;;;1.67;0.40;;;12.80;99.90;;;;;;5096413;28;20039;-83
2022/09/01 00:59:05;;;;;;;1.58;0.30;;;12.80;99.90;;;;;;5095372;28;20096;-83
2022/09/01 01:01:33;;;;;;;1.70;0.40;;;12.80;99.90;;;;;;5097070;28;20027;-83
2022/09/01 01:04:00;;;;;;;2.28;0.90;;;12.70;99.90;;;;;;5078624;28;20083;-83
2022/09/01 01:06:28;;;;;;;1.35;0.95;;;12.70;99.90;;;;;;5079103;28;20043;-83
2022/09/01 01:08:57;;;;;;;1.08;0.38;;;12.60;99.90;;;;;;5082839;27;20035;-83
2022/09/01 01:11:26;;;;;;;1.52;0.40;;;12.60;99.90;;;;;;5107935;27;20035;-83
2022/09/01 01:14:04;;;;;;;0.70;0.30;;;12.60;99.90;;;;;;5090205;27;20121;-84
2022/09/01 01:16:30;;;;;;;1.27;0.30;;;12.60;99.90;;;;;;5114815;27;20099;-83
2022/09/01 01:18:55;;;;;;;0.98;0.40;;;12.60;99.90;;;;;;5097565;27;20039;-83
2022/09/01 01:24:26;;;;;;;1.20;0.52;;;12.60;99.90;;;;;;5106611;27;20117;-82
2022/09/01 01:26:52;;;;;;;1.67;0.30;;;12.50;99.90;;;;;;5098262;27;20096;-83
2022/09/01 01:29:18;;;;;;;2.28;0.60;;;12.50;99.90;;;;;;5108947;28;20059;-83
2022/09/01 01:31:48;;;;;;;3.47;0.63;;;12.60;99.90;;;;;;5110772;27;20046;-83
2022/09/01 01:34:16;;;;;;;1.55;0.60;;;12.50;99.90;;;;;;5094582;28;20389;-82
2022/09/01 01:36:42;;;;;;;2.65;0.98;;;12.50;99.90;;;;;;5094040;28;20039;-82
2022/09/01 01:39:12;;;;;;;1.00;0.35;;;12.40;99.90;;;;;;5094235;28;20072;-82
2022/09/01 01:41:43;;;;;;;1.45;0.55;;;12.40;99.90;;;;;;5111011;27;20043;-82
2022/09/01 01:44:11;;;;;;;1.63;0.70;;;12.30;99.90;;;;;;5112389;27;20406;-83
2022/09/01 01:46:41;;;;;;;0.80;0.47;;;12.30;99.90;;;;;;5114213;27;20382;-83
2022/09/01 01:49:08;;;;;;;1.92;0.70;;;12.30;99.90;;;;;;5114296;27;20050;-82
2022/09/01 01:51:33;;;;;;;1.35;0.40;;;12.30;99.90;;;;;;5113426;27;20042;-82
2022/09/01 01:54:04;;;;;;;1.45;0.70;;;12.20;99.90;;;;;;5111757;27;20087;-82
2022/09/01 01:56:31;;;;;;;1.65;0.82;;;12.20;99.90;;;;;;5077461;28;20190;-82
2022/09/01 01:58:57;;;;;;;1.52;0.38;;;12.20;99.90;;;;;;5103727;28;20051;-82
2022/09/01 02:01:27;;;;;;;1.45;0.40;;;12.10;99.90;;;;;;5119721;27;20035;-82
2022/09/01 02:03:56;;;;;;;1.27;0.43;;;12.10;99.90;;;;;;5114340;27;20039;-82
2022/09/01 02:06:24;;;;;;;1.40;0.50;;;12.10;99.90;;;;;;5114955;27;20031;-82
2022/09/01 02:08:57;;;;;;;1.17;0.43;;;12.10;99.90;;;;;;5117986;27;20557;-83
2022/09/01 02:11:27;;;;;;;0.80;0.40;;;12.10;99.90;;;;;;5121427;27;20035;-82
2022/09/01 02:13:57;;;;;;;1.33;0.80;;;12.10;99.90;;;;;;5112617;27;20038;-83
2022/09/01 02:16:29;;;;;;;1.17;0.30;;;12.00;99.90;;;;;;5084434;28;20039;-83
2022/09/01 02:18:55;;;;;;;2.25;0.70;;;12.00;99.90;;;;;;5084724;28;20081;-82
2022/09/01 02:21:23;;;;;;;1.20;0.50;;;12.00;99.90;;;;;;5120005;27;20080;-82
2022/09/01 02:23:59;;;;;;;1.33;0.43;;;12.00;99.90;;;;;;5114482;28;20035;-82
2022/09/01 02:26:32;;;;;;;1.63;0.60;;;12.00;99.90;;;;;;5103220;28;20087;-82
2022/09/01 02:29:03;;;;;;;2.47;0.90;;;12.00;99.90;;;;;;5102387;28;20074;-83
2022/09/01 02:31:40;;;;;;;2.17;0.40;;;12.00;99.90;;;;;;5106502;28;20035;-82
2022/09/01 02:34:09;;;;;;;2.08;0.60;;;12.00;99.90;;;;;;5116188;28;20054;-82
2022/09/01 02:36:39;;;;;;;2.17;0.57;;;12.00;99.90;;;;;;5121555;28;20039;-82
2022/09/01 02:39:05;;;;;;;1.67;0.50;;;12.00;99.90;;;;;;5085327;28;20061;-82
2022/09/01 02:41:33;;;;;;;2.25;0.40;;;12.00;99.90;;;;;;5106572;28;20099;-83
2022/09/01 02:44:00;;;;;;;1.10;0.70;;;12.00;99.90;;;;;;5113414;28;20050;-83
2022/09/01 02:46:28;;;;;;;1.40;0.47;;;12.00;99.90;;;;;;5104225;28;20038;-82
2022/09/01 02:48:54;;;;;;;3.42;0.50;;;12.00;99.90;;;;;;5103629;28;20064;-83
2022/09/01 02:51:24;;;;;;;1.35;0.75;;;12.00;99.90;;;;;;5115369;28;20031;-82
2022/09/01 02:53:51;;;;;;;1.45;0.50;;;12.10;99.90;;;;;;5106121;28;20065;-82
2022/09/01 02:56:21;;;;;;;1.23;0.50;;;12.00;99.90;;;;;;5090909;28;20046;-82
2022/09/01 02:58:48;;;;;;;2.92;0.40;;;12.10;99.90;;;;;;5116196;28;20047;-82
2022/09/01 03:01:23;;;;;;;2.97;0.73;;;12.10;99.90;;;;;;5120013;28;20040;-82
2022/09/01 03:03:50;;;;;;;1.35;0.73;;;12.10;99.90;;;;;;5121993;28;20095;-82
2022/09/01 03:06:22;;;;;;;1.80;0.40;;;12.20;99.90;;;;;;5125619;28;20467;-82
2022/09/01 03:08:49;;;;;;;1.20;0.50;;;12.20;99.90;;;;;;5120704;28;20077;-83
2022/09/01 03:11:15;;;;;;;0.73;0.43;;;12.20;99.90;;;;;;5092846;28;20046;-82
2022/09/01 03:13:42;;;;;;;0.98;0.40;;;12.30;99.90;;;;;;5108926;28;20067;-82
2022/09/01 03:16:08;;;;;;;1.23;0.50;;;12.30;99.90;;;;;;5105201;28;20048;-82
2022/09/01 03:18:35;;;;;;;2.47;0.68;;;12.30;99.90;;;;;;5105554;28;20131;-83
2022/09/01 03:21:01;;;;;;;1.95;0.60;;;12.20;99.90;;;;;;5116200;27;20046;-82
2022/09/01 03:23:30;;;;;;;1.25;0.57;;;12.20;99.90;;;;;;5101562;27;20043;-82
2022/09/01 03:25:56;;;;;;;1.98;0.60;;;12.20;99.90;;;;;;5088817;28;20043;-82
2022/09/01 03:28:21;;;;;;;2.17;0.40;;;12.20;99.90;;;;;;5105590;28;20108;-82
2022/09/01 03:30:50;;;;;;;1.42;0.68;;;12.10;99.90;;;;;;5113957;27;20066;-82
2022/09/01 03:33:17;;;;;;;1.50;0.77;;;12.10;99.90;;;;;;5119099;27;20481;-82
2022/09/01 03:35:44;;;;;;;2.88;0.70;;;12.10;99.90;;;;;;5125900;27;20039;-82
2022/09/01 03:38:11;;;;;;;1.63;0.50;;;12.10;99.90;;;;;;5108599;27;20042;-83
2022/09/01 03:40:37;;;;;;;2.13;0.70;;;12.00;99.90;;;;;;5121137;27;20106;-82
2022/09/01 03:43:08;;;;;;;2.25;1.00;;;12.00;99.90;;;;;;5123046;27;20140;-82
2022/09/01 03:45:37;;;;;;;3.13;1.00;;;11.90;99.90;;;;;;5119275;28;20031;-82
2022/09/01 03:48:07;;;;;;;3.38;1.15;;;11.90;99.90;;;;;;5116767;28;20126;-83
2022/09/01 03:50:35;;;;;;;1.35;0.52;;;11.90;99.90;;;;;;5096335;27;20035;-82
2022/09/01 03:53:01;;;;;;;2.17;0.40;;;11.90;99.90;;;;;;5119630;27;20046;-82
2022/09/01 03:55:30;;;;;;;1.60;0.70;;;11.90;99.90;;;;;;5127860;27;20046;-82
2022/09/01 03:58:05;;;;;;;2.05;0.60;;;11.80;99.90;;;;;;5126551;27;20090;-83
2022/09/01 04:00:34;;;;;;;1.67;0.85;;;11.90;99.90;;;;;;5123220;27;20035;-82
2022/09/01 04:03:03;;;;;;;2.28;0.50;;;11.90;99.90;;;;;;5118328;27;20035;-83
2022/09/01 04:05:32;;;;;;;1.92;0.50;;;11.90;99.90;;;;;;5107089;28;20046;-82
2022/09/01 04:08:02;;;;;;;1.83;0.90;;;11.90;99.90;;;;;;5107625;28;20174;-82
2022/09/01 04:10:31;;;;;;;1.27;0.47;;;11.90;99.90;;;;;;5096056;27;20035;-82
2022/09/01 04:13:10;;;;;;;1.35;0.65;;;11.90;99.90;;;;;;5107390;27;20068;-82
2022/09/01 04:15:37;;;;;;;2.20;0.70;;;11.90;99.90;;;;;;5121517;27;20653;-82
2022/09/01 04:18:11;;;;;;;2.08;0.40;;;11.90;99.90;;;;;;5103001;27;20043;-81
2022/09/01 04:20:47;;;;;;;1.35;0.40;;;11.90;99.90;;;;;;5122756;27;20047;-82
2022/09/01 04:23:25;;;;;;;2.70;0.85;;;11.90;99.90;;;;;;5109594;27;20092;-83
2022/09/01 04:25:58;;;;;;;1.10;0.50;;;11.90;99.90;;;;;;5115580;27;20040;-82
2022/09/01 04:28:32;;;;;;;1.50;0.60;;;12.00;99.90;;;;;;5105017;28;20043;-83
2022/09/01 04:30:57;;;;;;;1.13;0.52;;;12.10;99.90;;;;;;5097808;27;20040;-82
2022/09/01 04:33:35;;;;;;;2.53;0.73;;;12.10;99.90;;;;;;5085343;28;20042;-82
2022/09/01 04:36:02;;;;;;;1.00;0.50;;;12.10;99.90;;;;;;5108110;27;20058;-82
2022/09/01 04:38:28;;;;;;;1.30;0.55;;;12.20;99.90;;;;;;5101226;28;20092;-82
2022/09/01 04:40:56;;;;;;;2.65;0.77;;;12.20;99.90;;;;;;5088320;27;20049;-82
2022/09/01 04:43:22;;;;;;;1.30;0.65;;;12.20;99.90;;;;;;5102039;28;20042;-83
2022/09/01 04:45:50;;;;;;;1.73;0.57;;;12.20;99.90;;;;;;5094976;28;20067;-83
2022/09/01 04:48:19;;;;;;;3.42;0.93;;;12.20;99.90;;;;;;5095130;28;20047;-83
2022/09/01 04:50:46;;;;;;;3.35;1.40;;;12.20;99.90;;;;;;5095209;28;20035;-85
2022/09/01 04:53:11;;;;;;;3.17;0.55;;;12.10;99.90;;;;;;5090278;27;20104;-84
2022/09/01 04:55:42;;;;;;;1.58;0.65;;;12.10;99.90;;;;;;5107384;28;20455;-84
2022/09/01 04:58:12;;;;;;;2.28;0.60;;;12.10;99.90;;;;;;5106552;27;20173;-81
2022/09/01 05:00:39;;;;;;;2.90;0.95;;;12.10;99.90;;;;;;5114315;27;20039;-81
2022/09/01 05:03:05;;;;;;;1.30;0.80;;;12.10;99.90;;;;;;5106902;27;20066;-82
2022/09/01 05:05:38;;;;;;;2.38;0.45;;;12.00;99.90;;;;;;5116179;27;20066;-83
2022/09/01 05:08:12;;;;;;;1.65;0.43;;;12.00;99.90;;;;;;5115042;27;20517;-83
2022/09/01 05:10:43;;;;;;;2.08;0.80;;;12.10;99.90;;;;;;5097021;27;20042;-83
2022/09/01 05:13:11;;;;;;;1.75;0.60;;;12.10;99.90;;;;;;5105229;27;20058;-83
2022/09/01 05:15:46;;;;;;;1.45;0.70;;;12.10;99.90;;;;;;5082166;28;20050;-83
2022/09/01 05:18:22;;;;;;;2.67;0.60;;;12.00;99.90;;;;;;5094725;28;20040;-83
2022/09/01 05:20:51;;;;;;;2.53;0.88;;;12.10;99.90;;;;;;5102730;27;20039;-84
2022/09/01 05:23:18;;;;;;;2.30;0.75;;;12.10;99.90;;;;;;5093459;28;20032;-83
2022/09/01 05:25:45;;;;;;;2.70;0.73;;;12.10;99.90;;;;;;5096692;28;20031;-83
2022/09/01 05:28:11;;;;;;;1.48;0.45;;;12.20;99.90;;;;;;5089633;27;20537;-83
2022/09/01 05:30:40;;;;;;;2.50;1.05;;;12.30;99.90;;;;;;5113502;27;20047;-83
2022/09/01 05:33:11;;;;;;;2.10;0.73;;;12.30;99.90;;;;;;5097921;27;20055;-84
2022/09/01 05:35:44;;;;;;;1.67;0.60;;;12.30;99.90;;;;;;5106739;28;20088;-84
2022/09/01 05:38:12;;;;;;;3.50;0.88;;;12.40;99.90;;;;;;5109586;28;20050;-84
2022/09/01 05:40:40;;;;;;;1.75;0.60;;;12.30;99.90;;;;;;5100758;27;20035;-84
2022/09/01 05:43:09;;;;;;;7.25;1.05;;;12.40;99.90;;;;;;5085988;27;20027;-84
2022/09/01 05:45:36;;;;;;;3.10;0.85;;;12.40;99.90;;;;;;5094426;28;20044;-84
2022/09/01 05:48:02;;;;;;;0.88;0.45;;;12.40;99.90;;;;;;5094063;28;20047;-85
2022/09/01 05:50:28;;;;;;;2.03;0.70;;;12.40;99.90;;;;;;5098186;27;20070;-84
2022/09/01 05:52:53;;;;;;;2.75;0.70;;;12.40;99.90;;;;;;5104850;27;20527;-84
2022/09/01 05:55:19;;;;;;;5.97;1.10;;;12.40;99.90;;;;;;5077425;28;20045;-84
2022/09/01 05:57:46;;;;;;;1.65;0.50;;;12.40;99.90;;;;;;5110280;27;20039;-85
2022/09/01 06:00:13;;;;;;;3.13;0.50;;;12.40;99.90;;;;;;5095746;27;20063;-85
2022/09/01 06:02:41;;;;;;;1.67;0.88;;;12.40;99.90;;;;;;5105886;27;20035;-84
2022/09/01 06:05:08;;;;;;;1.58;0.70;;;12.40;99.90;;;;;;5094793;28;20086;-84
2022/09/01 06:07:36;;;;;;;3.53;1.10;;;12.40;99.90;;;;;;5093990;28;20119;-84
2022/09/01 06:10:03;;;;;;;4.68;1.02;;;12.40;99.90;;;;;;5094052;27;20067;-84
2022/09/01 06:12:29;;;;;;;3.13;0.80;;;12.60;99.90;;;;;;5104129;27;20035;-84
2022/09/01 06:14:55;;;;;;;3.25;1.60;;;12.80;99.90;;;;;;5099989;27;20058;-83
2022/09/01 06:17:26;;;;;;;3.30;0.90;;;13.00;99.90;;;;;;5110571;28;20176;-84
2022/09/01 06:19:54;;;;;;;2.55;1.00;;;13.10;99.90;;;;;;5094933;28;20061;-83
2022/09/01 06:22:22;;;;;;;2.78;1.20;;;13.30;99.90;;;;;;5106378;27;20084;-84
2022/09/01 06:24:50;;;;;;;2.92;0.82;;;13.30;99.90;;;;;;5096925;28;20039;-84
2022/09/01 06:27:19;;;;;;;1.92;0.80;;;13.60;99.90;;;;;;5096325;28;20043;-83
2022/09/01 06:29:47;;;;;;;3.97;0.88;;;13.70;99.90;;;;;;5098018;28;20043;-83
2022/09/01 06:32:13;;;;;;;1.83;0.82;;;13.80;99.90;;;;;;5115319;28;20043;-84
2022/09/01 06:34:42;;;;;;;2.13;0.90;;;13.90;99.90;;;;;;5118565;28;20107;-83
2022/09/01 06:37:08;;;;;;;2.08;1.00;;;14.00;99.90;;;;;;5123609;28;20083;-84
2022/09/01 06:39:34;;;;;;;4.00;1.17;;;14.10;99.90;;;;;;5105983;28;20050;-84
2022/09/01 06:42:01;;;;;;;2.15;0.70;;;14.30;99.90;;;;;;5120742;28;20397;-84
2022/09/01 06:44:29;;;;;;;4.25;1.38;;;14.40;99.90;;;;;;5116299;28;20122;-83
2022/09/01 06:46:55;;;;;;;3.70;0.63;;;14.50;99.90;;;;;;5105356;28;20472;-83
2022/09/01 06:49:31;;;;;;;1.98;0.73;;;14.70;99.90;;;;;;5106542;27;20035;-83
2022/09/01 06:52:01;;;;;;;2.63;1.10;;;14.80;99.90;;;;;;5119999;27;20043;-85
2022/09/01 06:54:33;;;;;;;2.47;0.90;;;14.90;99.90;;;;;;5111468;28;20066;-83
2022/09/01 06:57:02;;;;;;;3.35;0.90;;;15.10;99.90;;;;;;5111346;27;20130;-85
2022/09/01 06:59:31;;;;;;;2.55;0.73;;;15.20;99.90;;;;;;5092954;27;20062;-83
2022/09/01 07:02:00;;;;;;;1.88;0.60;;;15.40;99.90;;;;;;5108336;27;20122;-83
2022/09/01 07:04:28;;;;;;;1.23;0.43;;;15.50;99.90;;;;;;5092245;27;20027;-83
2022/09/01 07:06:54;;;;;;;3.28;0.63;;;15.60;99.90;;;;;;5100599;27;20137;-83
2022/09/01 07:09:20;;;;;;;1.23;0.50;;;15.70;99.90;;;;;;5117491;27;20031;-83
2022/09/01 07:11:45;;;;;;;8.43;1.23;;;15.80;99.90;;;;;;5099735;27;20105;-83
2022/09/01 07:14:14;;;;;;;4.43;0.68;;;16.00;99.90;;;;;;5100147;27;20065;-83
2022/09/01 07:16:42;;;;;;;2.55;0.68;;;16.10;99.90;;;;;;5117772;27;20089;-83
2022/09/01 07:19:13;;;;;;;1.65;0.40;;;16.20;99.90;;;;;;5116978;27;20122;-84
2022/09/01 07:21:40;;;;;;;2.25;0.40;;;16.30;99.90;;;;;;5117792;27;20521;-83
2022/09/01 07:24:21;;;;;;;2.25;0.60;;;16.50;99.90;;;;;;5117146;27;20074;-85
2022/09/01 07:26:49;;;;;;;4.18;0.90;;;16.80;99.90;;;;;;5117083;27;20039;-86
2022/09/01 07:29:16;;;;;;;1.38;0.55;;;17.10;99.90;;;;;;5099745;27;20039;-86
2022/09/01 07:31:43;;;;;;;7.47;1.23;;;17.30;99.90;;;;;;5117039;27;20031;-86
2022/09/01 07:34:13;;;;;;;2.55;0.60;;;17.50;99.90;;;;;;5098308;27;20489;-86
2022/09/01 07:36:43;;;;;;;1.15;0.40;;;17.60;99.90;;;;;;5116836;27;20047;-86
2022/09/01 07:39:10;;;;;;;1.23;0.75;;;17.70;99.90;;;;;;5099337;27;20139;-85
2022/09/01 07:41:37;;;;;;;4.43;0.55;;;17.90;99.90;;;;;;5099529;27;20063;-86
2022/09/01 07:44:03;;;;;;;1.30;0.77;;;18.10;99.90;;;;;;5115413;27;20035;-85
2022/09/01 07:46:31;;;;;;;1.70;0.63;;;18.20;99.90;;;;;;5116537;27;20110;-85
2022/09/01 07:48:57;;;;;;;3.00;0.57;;;18.40;99.90;;;;;;5116572;27;20058;-85
2022/09/01 07:51:25;;;;;;;1.17;0.75;;;18.60;99.90;;;;;;5116703;27;20127;-84
2022/09/01 07:53:51;;;;;;;1.67;0.50;;;18.60;99.90;;;;;;5116117;27;20473;-84
2022/09/01 07:56:19;;;;;;;0.75;0.40;;;18.80;99.90;;;;;;5099235;27;20064;-84
2022/09/01 07:58:46;;;;;;;1.90;0.75;;;18.80;99.90;;;;;;5116466;27;20554;-84
2022/09/01 08:01:16;;;;;;;1.23;0.40;;;18.90;99.90;;;;;;5115227;27;20090;-83
2022/09/01 08:03:41;;;;;;;1.73;0.32;;;19.00;99.90;;;;;;5093515;27;20037;-84
2022/09/01 08:06:11;;;;;;;1.23;0.40;;;19.20;99.90;;;;;;5112263;27;20040;-84
2022/09/01 08:08:38;;;;;;;1.15;0.30;;;19.40;99.90;;;;;;5109952;27;20125;-84
2022/09/01 08:11:06;;;;;;;1.42;0.55;;;19.50;99.90;;;;;;5115394;27;20047;-83
2022/09/01 08:13:36;;;;;;;3.28;0.30;;;19.60;99.90;;;;;;5115366;27;20054;-84
2022/09/01 08:16:03;;;;;;;1.13;0.30;;;19.80;99.90;;;;;;5106224;28;20057;-82
2022/09/01 08:18:30;;;;;;;1.38;0.68;;;19.90;99.90;;;;;;5080342;27;20566;-83
2022/09/01 08:20:55;;;;;;;4.07;0.20;;;20.00;99.90;;;;;;5106143;27;20031;-82
2022/09/01 08:23:25;;;;;;;0.88;0.30;;;20.00;99.90;;;;;;5104553;27;20031;-81
2022/09/01 08:25:51;;;;;;;0.95;0.43;;;20.20;99.90;;;;;;5099830;28;20066;-81
2022/09/01 08:28:18;;;;;;;1.13;0.30;;;20.40;99.90;;;;;;5115397;27;20081;-81
2022/09/01 08:30:45;;;;;;;0.88;0.40;;;20.60;99.90;;;;;;5117896;27;20043;-80
2022/09/01 08:33:12;;;;;;;5.15;0.43;;;20.60;99.90;;;;;;5113401;27;20048;-80
2022/09/01 08:35:44;;;;;;;1.67;0.30;;;20.80;99.90;;;;;;5116676;27;20051;-80
2022/09/01 08:38:10;;;;;;;3.78;0.20;;;20.90;99.90;;;;;;5117786;27;20435;-80
2022/09/01 08:40:36;;;;;;;3.15;0.52;;;21.10;99.90;;;;;;5101599;27;20121;-82
2022/09/01 08:43:23;;;;;;;1.60;0.68;;;21.20;99.90;;;;;;5114854;27;20435;-82
2022/09/01 08:45:54;;;;;;;2.17;0.32;;;21.20;99.90;;;;;;5097150;27;20338;-83
2022/09/01 08:48:39;;;;;;;0.68;0.20;;;21.30;99.90;;;;;;5116845;27;20080;-81
2022/09/01 08:51:13;;;;;;;0.77;0.20;;;21.30;99.90;;;;;;5116787;27;20493;-83
2022/09/01 08:53:54;;;;;;;1.55;0.15;;;21.40;99.90;;;;;;5114797;27;20039;-82
2022/09/01 08:56:21;;;;;;;2.15;0.30;;;21.50;99.90;;;;;;5104899;27;20055;-82
2022/09/01 08:58:47;;;;;;;2.25;0.20;;;21.60;99.90;;;;;;5110871;27;20046;-82
2022/09/01 09:01:26;;;;;;;1.38;0.20;;;21.70;99.90;;;;;;5105362;27;20027;-82
2022/09/01 09:04:27;;;;;;;2.17;0.20;;;21.90;99.90;;;;;;5115189;27;20485;-82
2022/09/01 09:07:00;;;;;;;1.48;0.20;;;21.90;99.90;;;;;;5108112;27;20062;-81
2022/09/01 09:09:40;;;;;;;1.42;0.20;;;22.00;99.90;;;;;;5110298;27;20035;-82
2022/09/01 09:12:26;;;;;;;1.42;0.10;;;22.20;99.80;;;;;;5113335;27;20035;-82
2022/09/01 09:15:26;;;;;;;2.58;0.20;;;22.40;99.00;;;;;;5106633;27;20058;-83
2022/09/01 09:18:00;;;;;;;0.50;0.13;;;22.50;98.20;;;;;;5092572;28;20055;-82
2022/09/01 09:20:27;;;;;;;0.50;0.20;;;22.70;97.60;;;;;;5110738;27;20147;-82
2022/09/01 09:22:53;;;;;;;1.45;0.20;;;22.80;96.40;;;;;;5109768;27;20084;-82
2022/09/01 09:25:19;;;;;;;1.17;0.20;;;22.90;96.10;;;;;;5114715;27;20036;-82
2022/09/01 09:27:47;;;;;;;1.40;0.30;;;23.10;95.90;;;;;;5114030;27;20080;-79
2022/09/01 09:30:28;;;;;;;1.58;0.10;;;23.30;95.00;;;;;;5095418;28;20039;-79
2022/09/01 09:32:54;;;;;;;0.55;0.10;;;23.40;93.20;;;;;;5103104;27;20126;-78
2022/09/01 09:35:38;;;;;;;0.70;0.17;;;23.40;93.10;;;;;;5116059;27;20565;-79
2022/09/01 09:38:21;;;;;;;0.40;0.10;;;23.50;91.80;;;;;;5114408;27;20043;-78
2022/09/01 09:41:17;;;;;;;0.55;0.10;;;23.60;90.80;;;;;;5096852;28;20043;-81
2022/09/01 09:43:57;;;;;;;0.32;0.08;;;23.70;90.90;;;;;;5114470;27;20114;-81
2022/09/01 09:46:36;;;;;;;0.50;0.10;;;23.80;89.00;;;;;;5116660;27;20039;-80
2022/09/01 09:49:09;;;;;;;0.65;0.10;;;23.90;86.10;;;;;;5116246;27;20049;-81
2022/09/01 09:51:39;;;;;;;1.50;0.10;;;23.70;83.60;;;;;;5112160;28;20039;-80
2022/09/01 09:54:32;;;;;;;0.73;0.10;;;23.70;85.20;;;;;;5080336;27;20051;-80
2022/09/01 09:57:07;;;;;;;1.45;0.10;;;23.80;81.20;;;;;;5120435;27;20047;-80
2022/09/01 10:00:07;;;;;;;0.65;0.10;;;23.70;81.50;;;;;;5116127;27;20126;-81
2022/09/01 10:02:39;;;;;;;1.05;0.10;;;23.70;81.80;;;;;;5089739;28;20054;-80
2022/09/01 10:05:31;;;;;;;1.05;0.10;;;23.90;81.00;;;;;;5110605;27;20118;-81
2022/09/01 10:07:57;;;;;;;1.00;0.17;;;24.20;78.20;;;;;;5116111;27;20045;-81
2022/09/01 10:10:45;;;;;;;0.43;0.10;;;24.30;76.70;;;;;;5110661;27;20114;-82
2022/09/01 10:13:19;;;;;;;0.22;0.10;;;24.10;73.40;;;;;;5111619;27;20031;-81
2022/09/01 10:15:52;;;;;;;;;;;23.70;72.50;;;;;;5109483;27;20096;-82
2022/09/01 10:18:21;;;;;;;1.25;0.10;;;23.30;71.60;;;;;;5110915;27;20403;-81
2022/09/01 10:20:59;;;;;;;1.02;0.10;;;23.30;74.80;;;;;;5106967;27;20096;-81
2022/09/01 10:23:26;;;;;;;0.15;0.00;;;23.60;70.10;;;;;;5083734;27;20043;-82
2022/09/01 10:25:58;;;;;;;0.35;0.10;;;23.90;72.40;;;;;;5114116;27;20063;-82
2022/09/01 10:28:26;;;;;;;2.58;0.10;;;23.90;69.70;;;;;;5112275;28;20040;-82
2022/09/01 10:30:53;;;;;;;2.63;0.10;;;23.60;69.00;;;;;;5104519;28;20058;-82
2022/09/01 10:33:20;;;;;;;0.45;0.10;;;23.70;70.30;;;;;;5098028;28;20044;-81
2022/09/01 10:35:52;;;;;;;0.75;0.10;;;23.80;70.80;;;;;;5105791;27;20046;-82
2022/09/01 10:38:27;;;;;;;2.28;0.13;;;23.80;68.50;;;;;;5121023;27;20050;-82
2022/09/01 10:41:06;;;;;;;0.95;0.08;;;23.50;68.90;;;;;;5096856;28;20039;-82
2022/09/01 10:43:42;;;;;;;1.48;0.10;;;23.30;69.70;;;;;;5104009;27;20083;-81
2022/09/01 10:46:16;;;;;;;1.20;0.10;;;23.60;68.20;;;;;;5113594;28;20074;-80
2022/09/01 10:48:42;;;;;;;0.55;0.10;;;23.80;66.10;;;;;;5098458;28;20092;-80
2022/09/01 10:51:14;;;;;;;1.42;0.10;;;23.80;67.00;;;;;;5114121;28;20111;-80
2022/09/01 10:53:59;;;;;;;1.20;0.10;;;24.00;67.40;;;;;;5115650;28;20130;-81
2022/09/01 10:56:45;;;;;;;1.05;0.10;;;24.10;67.30;;;;;;5104656;28;20036;-82
2022/09/01 10:59:16;;;;;;;0.10;0.05;;;24.10;65.40;;;;;;5102311;28;20114;-81
2022/09/01 11:01:42;;;;;;;3.50;0.10;;;24.30;66.00;;;;;;5105614;28;20050;-81
2022/09/01 11:04:10;;;;;;;0.52;0.10;;;24.50;65.70;;;;;;5101172;28;20043;-81
2022/09/01 11:06:41;;;;;;;0.25;0.10;;;24.70;64.90;;;;;;5127832;28;20398;-81
2022/09/01 11:09:31;;;;;;;0.55;0.10;;;24.60;62.90;;;;;;5108567;28;20120;-81
2022/09/01 11:12:03;;;;;;;1.58;0.10;;;24.30;63.60;;;;;;5106720;27;20046;-81
2022/09/01 11:14:34;;;;;;;1.13;0.20;;;24.50;65.30;;;;;;5108022;28;20080;-81
2022/09/01 11:17:11;;;;;;;1.55;0.10;;;24.80;65.50;;;;;;5102083;27;20046;-81
2022/09/01 11:19:54;;;;;;;1.08;0.20;;;25.10;63.00;;;;;;5107155;28;20042;-81
2022/09/01 11:22:25;;;;;;;0.68;0.10;;;25.30;62.40;;;;;;5116502;22;20059;-77
2022/09/01 11:25:04;;;;;;;0.65;0.28;;;25.30;62.60;;;;;;5121765;27;20039;-77
2022/09/01 11:27:48;;;;;;;1.23;0.20;;;24.80;60.70;;;;;;5113627;28;20492;-77
2022/09/01 11:30:18;;;;;;;1.13;0.10;;;24.50;62.10;;;;;;5113009;28;20113;-78
2022/09/01 11:32:47;;;;;;;1.10;0.20;;;24.50;63.00;;;;;;5106593;28;20032;-78
2022/09/01 11:35:20;;;;;;;1.15;0.20;;;24.80;63.60;;;;;;5128143;27;20031;-78
2022/09/01 11:37:53;;;;;;;0.80;0.20;;;25.20;61.10;;;;;;5076598;28;20039;-77
2022/09/01 11:40:31;;;;;;;0.95;0.10;;;25.60;59.50;;;;;;5087908;28;20084;-77
2022/09/01 11:43:00;;;;;;;2.00;0.10;;;25.80;60.80;;;;;;5093564;28;20482;-77
2022/09/01 11:45:31;;;;;;;4.82;0.30;;;25.70;60.10;;;;;;5088989;28;20063;-78
2022/09/01 11:48:01;;;;;;;0.25;0.10;;;26.00;59.90;;;;;;5080092;28;20369;-77
2022/09/01 11:50:36;;;;;;;1.48;0.10;;;25.80;58.80;;;;;;5090270;28;20087;-77
2022/09/01 11:53:06;;;;;;;0.65;0.00;;;26.10;59.10;;;;;;5091308;28;20044;-77
2022/09/01 11:55:44;;;;;;;1.20;0.10;;;26.10;59.00;;;;;;5093355;28;20040;-77
2022/09/01 11:58:37;;;;;;;1.23;0.20;;;26.00;56.40;;;;;;5075847;28;20134;-77
2022/09/01 12:01:11;;;;;;;0.73;0.10;;;25.60;57.90;;;;;;5083353;28;20627;-78
2022/09/01 12:03:37;;;;;;;0.50;0.20;;;25.60;59.10;;;;;;5095506;28;20040;-78
2022/09/01 12:06:06;;;;;;;0.30;0.10;;;25.90;59.30;;;;;;5073512;28;20292;-79
2022/09/01 12:08:35;;;;;;;0.88;0.10;;;26.20;59.00;;;;;;5089304;28;20044;-79
2022/09/01 12:11:11;;;;;;;1.05;0.10;;;26.40;58.00;;;;;;5089968;28;20313;-78
2022/09/01 12:13:38;;;;;;;1.75;0.10;;;26.60;57.50;;;;;;5086701;28;20044;-78
2022/09/01 12:16:07;;;;;;;0.98;0.00;;;26.60;57.30;;;;;;5092052;28;20036;-78
2022/09/01 12:18:43;;;;;;;1.75;0.10;;;26.30;56.40;;;;;;5088327;28;20067;-77
2022/09/01 12:21:26;;;;;;;1.30;0.10;;;26.10;56.80;;;;;;5086120;28;20048;-80
2022/09/01 12:23:52;;;;;;;0.95;0.10;;;26.50;56.60;;;;;;5086783;28;20047;-79
2022/09/01 12:26:25;;;;;;;1.90;0.10;;;26.30;56.40;;;;;;5094489;28;20047;-81
2022/09/01 12:28:52;;;;;;;2.30;0.10;;;25.80;56.40;;;;;;5092032;28;20050;-80
2022/09/01 12:31:24;;;;;;;0.80;0.10;;;25.40;57.10;;;;;;5091855;28;20504;-79
2022/09/01 12:33:51;;;;;;;1.05;0.10;;;25.60;57.70;;;;;;5099767;28;20046;-81
2022/09/01 12:36:24;;;;;;;0.32;0.00;;;25.80;57.60;;;;;;5096368;28;20055;-81
2022/09/01 12:39:14;;;;;;;0.67;0.10;;;26.30;56.30;;;;;;5095114;28;20043;-80
2022/09/01 12:41:40;;;;;;;0.32;0.00;;;26.90;56.20;;;;;;5080561;28;20064;-80
2022/09/01 12:44:42;;;;;;;1.52;0.10;;;27.40;55.10;;;;;;5090261;28;20063;-80
2022/09/01 12:47:34;;;;;;;1.55;0.20;;;27.10;53.80;;;;;;5091267;28;20169;-80
2022/09/01 12:50:05;;;;;;;0.60;0.15;;;26.20;55.30;;;;;;5089830;28;20046;-80
2022/09/01 12:52:33;;;;;;;0.68;0.10;;;25.60;56.90;;;;;;5091844;28;20398;-80
2022/09/01 12:54:58;;;;;;;1.60;0.10;;;25.30;57.20;;;;;;5089995;28;21375;-80
2022/09/01 12:57:33;;;;;;;0.95;0.15;;;24.90;57.70;;;;;;5093112;28;20055;-79
2022/09/01 13:00:14;;;;;;;0.73;0.10;;;24.70;58.10;;;;;;5092474;28;20245;-78
2022/09/01 13:02:44;;;;;;;0.40;0.10;;;24.40;58.40;;;;;;5093642;28;20075;-79
2022/09/01 13:05:43;;;;;;;2.00;0.20;;;24.50;60.00;;;;;;5092060;28;20065;-79
2022/09/01 13:08:11;;;;;;;1.23;0.10;;;25.20;58.50;;;;;;5046253;28;20090;-79
2022/09/01 13:10:40;;;;;;;1.42;0.20;;;25.50;58.40;;;;;;5075245;28;20111;-80